createdAt,value
2022-11-23T00:01:16.966Z,94302.44
2022-11-23T00:03:46.622Z,94303.44
2022-11-23T00:06:14.727Z,94299.63
2022-11-23T00:08:43.225Z,94300.88
2022-11-23T00:11:11.156Z,94304.25
2022-11-23T00:13:41.052Z,94301.06
2022-11-23T00:16:09.576Z,94312.56
2022-11-23T00:18:37.868Z,94311.78
2022-11-23T00:21:10.764Z,94310.75
2022-11-23T00:23:39.168Z,94306.53
2022-11-23T00:26:07.452Z,94304.91
2022-11-23T00:28:40.084Z,94301.28
2022-11-23T00:31:10.369Z,94309.69
2022-11-23T00:33:38.551Z,94312.56
2022-11-23T00:36:09.064Z,94311.72
2022-11-23T00:38:38.887Z,94307.69
2022-11-23T00:41:10.728Z,94313.38
2022-11-23T00:43:39.238Z,94303.69
2022-11-23T00:46:11.528Z,94312.31
2022-11-23T00:48:39.818Z,94311.75
2022-11-23T00:51:10.213Z,94319.03
2022-11-23T00:53:39.690Z,94312.97
2022-11-23T00:56:07.833Z,94310.28
2022-11-23T00:58:38.635Z,94304.00
2022-11-23T01:01:09.444Z,94312.38
2022-11-23T01:03:38.203Z,94309.53
2022-11-23T01:06:08.774Z,94310.13
2022-11-23T01:08:36.828Z,94310.69
2022-11-23T01:11:08.600Z,94311.22
2022-11-23T01:13:37.035Z,94315.28
2022-11-23T01:16:06.542Z,94312.69
2022-11-23T01:18:34.554Z,94306.25
2022-11-23T01:21:03.312Z,94305.44
2022-11-23T01:23:31.876Z,94305.84
2022-11-23T01:26:07.264Z,94311.56
2022-11-23T01:28:35.582Z,94314.41
2022-11-23T01:31:08.792Z,94306.72
2022-11-23T01:33:37.134Z,94312.69
2022-11-23T01:36:11.382Z,94312.75
2022-11-23T01:38:39.071Z,94310.78
2022-11-23T01:41:10.594Z,94316.69
2022-11-23T01:43:38.285Z,94319.31
2022-11-23T01:46:07.607Z,94316.88
2022-11-23T01:48:39.898Z,94320.19
2022-11-23T01:51:16.613Z,94319.38
2022-11-23T01:53:47.138Z,94315.34
2022-11-23T01:56:20.732Z,94324.66
2022-11-23T01:58:51.556Z,94326.28
2022-11-23T02:01:19.749Z,94328.31
2022-11-23T02:03:50.089Z,94326.28
2022-11-23T02:06:20.766Z,94329.09
2022-11-23T02:08:49.307Z,94324.28
2022-11-23T02:11:18.901Z,94334.38
2022-11-23T02:13:49.899Z,94330.56
2022-11-23T02:16:19.520Z,94331.97
2022-11-23T02:18:49.536Z,94332.38
2022-11-23T02:21:21.113Z,94340.84
2022-11-23T02:23:55.319Z,94335.81
2022-11-23T02:26:28.099Z,94340.09
2022-11-23T02:29:01.062Z,94332.59
2022-11-23T02:31:31.837Z,94334.00
2022-11-23T02:33:59.516Z,94333.38
2022-11-23T02:36:37.617Z,94334.00
2022-11-23T02:39:12.480Z,94336.84
2022-11-23T02:41:44.866Z,94339.59
2022-11-23T02:44:32.908Z,94338.63
2022-11-23T02:47:01.196Z,94334.00
2022-11-23T02:49:29.660Z,94335.75
2022-11-23T02:51:57.874Z,94337.31
2022-11-23T02:54:27.828Z,94345.66
2022-11-23T02:56:57.491Z,94336.56
2022-11-23T02:59:25.366Z,94341.63
2022-11-23T03:01:54.798Z,94347.47
2022-11-23T03:04:27.599Z,94351.25
2022-11-23T03:06:56.634Z,94340.41
2022-11-23T03:09:26.257Z,94346.88
2022-11-23T03:11:55.475Z,94338.97
2022-11-23T03:14:26.876Z,94341.41
2022-11-23T03:16:59.561Z,94340.00
2022-11-23T03:19:28.991Z,94339.59
2022-11-23T03:21:57.241Z,94350.09
2022-11-23T03:24:24.933Z,94347.09
2022-11-23T03:26:55.176Z,94339.66
2022-11-23T03:29:26.446Z,94343.88
2022-11-23T03:31:57.812Z,94342.44
2022-11-23T03:34:25.896Z,94338.22
2022-11-23T03:36:54.139Z,94335.75
2022-11-23T03:39:22.031Z,94334.97
2022-11-23T03:42:15.992Z,94323.06
2022-11-23T03:44:43.769Z,94333.16
2022-11-23T03:47:14.185Z,94332.72
2022-11-23T03:49:42.621Z,94328.66
2022-11-23T03:52:11.342Z,94333.16
2022-11-23T03:54:38.991Z,94321.88
2022-11-23T03:57:07.180Z,94321.03
2022-11-23T03:59:34.886Z,94310.56
2022-11-23T04:02:02.683Z,94320.38
2022-11-23T04:04:36.379Z,94315.56
2022-11-23T04:07:27.483Z,94316.75
2022-11-23T04:09:56.577Z,94314.13
2022-11-23T04:12:33.865Z,94313.13
2022-11-23T04:15:01.558Z,94307.69
2022-11-23T04:17:29.478Z,94312.94
2022-11-23T04:19:58.491Z,94310.94
2022-11-23T04:22:26.733Z,94312.13
2022-11-23T04:24:54.585Z,94302.63
2022-11-23T04:27:23.308Z,94308.47
2022-11-23T04:29:51.080Z,94303.59
2022-11-23T04:32:20.034Z,94313.94
2022-11-23T04:34:48.719Z,94315.72
2022-11-23T04:37:18.896Z,94311.09
2022-11-23T04:39:46.667Z,94314.34
2022-11-23T04:42:17.192Z,94308.94
2022-11-23T04:44:50.428Z,94308.53
2022-11-23T04:47:19.378Z,94314.03
2022-11-23T04:49:48.938Z,94311.19
2022-11-23T04:52:18.536Z,94313.63
2022-11-23T04:54:48.316Z,94312.41
2022-11-23T04:57:16.881Z,94308.38
2022-11-23T04:59:46.374Z,94312.22
2022-11-23T05:02:14.513Z,94300.50
2022-11-23T05:05:11.718Z,94299.47
2022-11-23T05:07:41.305Z,94304.91
2022-11-23T05:10:10.930Z,94304.09
2022-11-23T05:12:39.359Z,94306.91
2022-11-23T05:15:09.240Z,94302.69
2022-11-23T05:17:39.159Z,94298.66
2022-11-23T05:20:12.537Z,94296.84
2022-11-23T05:22:46.657Z,94302.06
2022-11-23T05:25:17.627Z,94286.72
2022-11-23T05:27:47.482Z,94288.72
2022-11-23T05:30:15.808Z,94294.56
2022-11-23T05:32:43.787Z,94290.91
2022-11-23T05:35:12.642Z,94286.22
2022-11-23T05:37:41.249Z,94293.25
2022-11-23T05:40:14.219Z,94287.22
2022-11-23T05:42:43.418Z,94291.81
2022-11-23T05:45:20.035Z,94292.81
2022-11-23T05:47:52.740Z,94290.59
2022-11-23T05:50:28.981Z,94291.41
2022-11-23T05:53:15.888Z,94293.41
2022-11-23T05:55:48.050Z,94288.97
2022-11-23T05:58:15.804Z,94290.78
2022-11-23T06:00:43.666Z,94285.34
2022-11-23T06:03:12.245Z,94286.97
2022-11-23T06:05:41.000Z,94292.19
2022-11-23T06:08:10.019Z,94294.22
2022-11-23T06:10:39.480Z,94289.97
2022-11-23T06:13:09.229Z,94290.59
2022-11-23T06:15:37.085Z,94282.72
2022-11-23T06:18:05.599Z,94283.72
2022-11-23T06:20:48.213Z,94285.34
2022-11-23T06:23:16.816Z,94285.34
2022-11-23T06:25:44.652Z,94288.97
2022-11-23T06:28:27.475Z,94281.31
2022-11-23T06:30:56.947Z,94289.03
2022-11-23T06:33:25.898Z,94291.44
2022-11-23T06:35:56.168Z,94288.56
2022-11-23T06:38:27.589Z,94294.22
2022-11-23T06:41:15.427Z,94291.59
2022-11-23T06:43:45.029Z,94298.84
2022-11-23T06:46:14.579Z,94302.69
2022-11-23T06:48:44.525Z,94305.50
2022-11-23T06:51:13.464Z,94311.31
2022-11-23T06:53:41.614Z,94315.19
2022-11-23T06:56:10.680Z,94304.31
2022-11-23T06:58:38.997Z,94303.09
2022-11-23T07:01:13.022Z,94312.00
2022-11-23T07:03:48.198Z,94320.50
2022-11-23T07:06:23.058Z,94317.88
2022-11-23T07:08:56.002Z,94325.16
2022-11-23T07:11:59.095Z,94320.34
2022-11-23T07:14:27.927Z,94333.88
2022-11-23T07:16:58.232Z,94332.69
2022-11-23T07:19:26.041Z,94343.19
2022-11-23T07:21:59.620Z,94332.91
2022-11-23T07:24:27.373Z,94334.38
2022-11-23T07:26:55.087Z,94341.72
2022-11-23T07:29:24.093Z,94350.66
2022-11-23T07:31:53.284Z,94339.63
2022-11-23T07:34:26.281Z,94350.22
2022-11-23T07:36:57.911Z,94350.03
2022-11-23T07:39:42.232Z,94361.00
2022-11-23T07:45:04.760Z,94353.75
2022-11-23T07:47:32.656Z,94353.34
2022-11-23T07:50:02.008Z,94356.53
2022-11-23T07:52:30.488Z,94360.00
2022-11-23T07:55:00.444Z,94346.06
2022-11-23T07:57:28.496Z,94356.22
2022-11-23T07:59:56.943Z,94346.88
2022-11-23T08:02:24.653Z,94353.38
2022-11-23T08:04:52.397Z,94351.72
2022-11-23T08:07:21.446Z,94350.84
2022-11-23T08:09:50.688Z,94357.31
2022-11-23T08:12:18.374Z,94347.75
2022-11-23T08:14:46.368Z,94353.91
2022-11-23T08:17:14.033Z,94351.47
2022-11-23T08:19:42.575Z,94355.03
2022-11-23T08:22:14.633Z,94353.56
2022-11-23T08:24:45.490Z,94360.78
2022-11-23T08:27:13.167Z,94359.34
2022-11-23T08:29:41.507Z,94353.47
2022-11-23T08:32:09.203Z,94354.28
2022-11-23T08:34:37.570Z,94345.72
2022-11-23T08:37:05.246Z,94340.19
2022-11-23T08:39:33.322Z,94340.72
2022-11-23T08:42:02.351Z,94332.69
2022-11-23T08:44:30.939Z,94325.38
2022-11-23T08:46:58.824Z,94333.66
2022-11-23T08:49:26.806Z,94329.66
2022-11-23T08:51:55.008Z,94336.41
2022-11-23T08:54:24.201Z,94338.88
2022-11-23T08:56:52.589Z,94336.19
2022-11-23T08:59:21.625Z,94338.06
2022-11-23T09:01:49.380Z,94338.88
2022-11-23T09:04:20.708Z,94346.91
2022-11-23T09:06:48.728Z,94341.50
2022-11-23T09:09:16.426Z,94342.84
2022-11-23T09:11:44.448Z,94339.84
2022-11-23T09:14:12.218Z,94337.41
2022-11-23T09:16:41.254Z,94341.03
2022-11-23T09:19:08.895Z,94344.50
2022-11-23T09:21:39.125Z,94347.84
2022-11-23T09:24:07.432Z,94346.78
2022-11-23T09:26:37.550Z,94343.09
2022-11-23T09:29:05.732Z,94337.22
2022-11-23T09:31:33.480Z,94341.28
2022-11-23T09:34:02.535Z,94341.25
2022-11-23T09:36:31.098Z,94339.03
2022-11-23T09:38:58.892Z,94336.47
2022-11-23T09:41:58.533Z,94337.16
2022-11-23T09:44:36.661Z,94340.09
2022-11-23T09:47:20.417Z,94329.75
2022-11-23T09:49:58.852Z,94318.28
2022-11-23T09:52:27.425Z,94330.84
2022-11-23T09:54:58.289Z,94315.31
2022-11-23T09:57:31.164Z,94317.41
2022-11-23T10:00:03.124Z,94315.91
2022-11-23T10:02:37.618Z,94320.50
2022-11-23T10:05:08.286Z,94309.16
2022-11-23T10:07:50.440Z,94301.53
2022-11-23T10:10:30.562Z,94300.69
2022-11-23T10:13:08.318Z,94303.00
2022-11-23T10:15:41.452Z,94300.91
2022-11-23T10:18:23.772Z,94306.97
2022-11-23T10:21:00.791Z,94299.31
2022-11-23T10:23:50.181Z,94288.16
2022-11-23T10:26:20.030Z,94291.19
2022-11-23T10:28:48.800Z,94285.09
2022-11-23T10:31:19.219Z,94281.34
2022-11-23T10:33:55.565Z,94286.88
2022-11-23T10:36:25.436Z,94282.84
2022-11-23T10:38:58.616Z,94285.81
2022-11-23T10:41:26.984Z,94285.59
2022-11-23T10:44:07.896Z,94288.78
2022-11-23T10:46:40.378Z,94277.72
2022-11-23T10:49:18.260Z,94282.44
2022-11-23T10:51:57.281Z,94268.50
2022-11-23T10:54:29.183Z,94271.69
2022-11-23T10:56:58.761Z,94274.09
2022-11-23T10:59:36.553Z,94279.47
2022-11-23T11:02:16.541Z,94282.88
2022-11-23T11:04:44.950Z,94275.72
2022-11-23T11:07:25.029Z,94280.94
2022-11-23T11:09:55.136Z,94265.31
2022-11-23T11:12:24.051Z,94270.91
2022-11-23T11:15:10.921Z,94273.88
2022-11-23T11:17:40.240Z,94264.97
2022-11-23T11:20:31.324Z,94263.81
2022-11-23T11:23:03.172Z,94257.78
2022-11-23T11:25:33.924Z,94257.63
2022-11-23T11:28:04.174Z,94257.19
2022-11-23T11:30:45.085Z,94259.56
2022-11-23T11:33:19.038Z,94255.22
2022-11-23T11:35:52.345Z,94260.25
2022-11-23T11:38:28.079Z,94264.00
2022-11-23T11:40:58.861Z,94259.97
2022-11-23T11:43:39.175Z,94264.50
2022-11-23T11:46:30.127Z,94268.41
2022-11-23T11:49:04.767Z,94259.56
2022-11-23T11:51:37.914Z,94258.38
2022-11-23T11:54:16.806Z,94256.97
2022-11-23T11:56:47.070Z,94255.34
2022-11-23T11:59:19.098Z,94257.03
2022-11-23T12:01:56.211Z,94250.56
2022-11-23T12:04:30.400Z,94247.97
2022-11-23T12:07:06.084Z,94242.44
2022-11-23T12:09:40.032Z,94241.66
2022-11-23T12:12:15.856Z,94238.22
2022-11-23T12:14:44.977Z,94227.94
2022-11-23T12:17:46.202Z,94225.00
2022-11-23T12:20:24.904Z,94227.28
2022-11-23T12:23:16.034Z,94226.94
2022-11-23T12:25:52.621Z,94225.19
2022-11-23T12:28:41.722Z,94230.34
2022-11-23T12:31:17.493Z,94224.28
2022-11-23T12:34:01.171Z,94223.00
2022-11-23T12:36:52.074Z,94230.47
2022-11-23T12:39:38.184Z,94219.97
2022-11-23T12:42:14.669Z,94225.69
2022-11-23T12:44:55.540Z,94228.88
2022-11-23T12:47:35.061Z,94223.91
2022-11-23T12:50:17.792Z,94232.66
2022-11-23T12:53:01.115Z,94226.88
2022-11-23T12:55:38.795Z,94222.69
2022-11-23T12:58:17.055Z,94225.25
2022-11-23T13:00:49.404Z,94223.31
2022-11-23T13:03:42.933Z,94222.50
2022-11-23T13:06:59.307Z,94221.63
2022-11-23T13:09:56.402Z,94232.97
2022-11-23T13:12:49.971Z,94228.19
2022-11-23T13:15:36.256Z,94225.34
2022-11-23T13:18:13.940Z,94224.72
2022-11-23T13:21:06.017Z,94220.25
2022-11-23T13:23:37.958Z,94221.78
2022-11-23T13:26:17.334Z,94211.19
2022-11-23T13:28:46.301Z,94219.72
2022-11-23T13:31:24.781Z,94215.41
2022-11-23T13:33:55.801Z,94216.91
2022-11-23T13:37:11.123Z,94221.72
2022-11-23T13:40:03.579Z,94204.28
2022-11-23T13:42:34.005Z,94212.78
2022-11-23T13:45:25.877Z,94212.84
2022-11-23T13:51:06.806Z,94214.50
2022-11-23T13:53:36.774Z,94210.63
2022-11-23T13:56:24.046Z,94206.09
2022-11-23T13:58:53.957Z,94203.00
2022-11-23T14:01:59.640Z,94204.91
2022-11-23T14:04:30.931Z,94203.56
2022-11-23T14:07:03.509Z,94203.91
2022-11-23T14:09:37.601Z,94205.81
2022-11-23T14:12:15.624Z,94206.06
2022-11-23T14:14:52.959Z,94211.06
2022-11-23T14:18:03.242Z,94216.06
2022-11-23T14:20:44.834Z,94212.41
2022-11-23T14:23:29.465Z,94209.97
2022-11-23T14:26:13.496Z,94206.81
2022-11-23T14:28:53.602Z,94205.84
2022-11-23T14:31:29.245Z,94212.00
2022-11-23T14:34:03.034Z,94218.56
2022-11-23T14:36:44.781Z,94215.38
2022-11-23T14:39:49.544Z,94216.97
2022-11-23T14:42:20.640Z,94208.78
2022-11-23T14:44:51.020Z,94210.09
2022-11-23T14:47:27.507Z,94213.00
2022-11-23T14:49:56.241Z,94203.53
2022-11-23T14:52:28.315Z,94206.94
2022-11-23T14:54:59.946Z,94212.00
2022-11-23T14:57:30.978Z,94210.09
2022-11-23T15:00:03.077Z,94206.13
2022-11-23T15:02:36.982Z,94201.13
2022-11-23T15:05:12.716Z,94196.59
2022-11-23T15:07:47.923Z,94194.47
2022-11-23T15:10:30.109Z,94188.94
2022-11-23T15:12:57.887Z,94190.06
2022-11-23T15:15:28.278Z,94192.88
2022-11-23T15:17:57.873Z,94197.03
2022-11-23T15:20:32.734Z,94205.44
2022-11-23T15:23:02.409Z,94193.34
2022-11-23T15:25:30.600Z,94199.28
2022-11-23T15:27:58.427Z,94197.06
2022-11-23T15:30:29.723Z,94201.13
2022-11-23T15:32:58.937Z,94203.41
2022-11-23T15:35:32.678Z,94199.59
2022-11-23T15:38:02.582Z,94203.31
2022-11-23T15:40:33.944Z,94204.13
2022-11-23T15:43:01.755Z,94209.03
2022-11-23T15:45:38.252Z,94209.81
2022-11-23T15:48:11.506Z,94217.94
2022-11-23T15:50:49.175Z,94213.91
2022-11-23T15:53:18.771Z,94213.69
2022-11-23T15:55:47.817Z,94211.06
2022-11-23T15:58:18.215Z,94211.88
2022-11-23T16:00:51.388Z,94213.09
2022-11-23T16:03:30.034Z,94216.28
2022-11-23T16:06:17.852Z,94206.59
2022-11-23T16:08:47.031Z,94204.97
2022-11-23T16:11:32.727Z,94208.19
2022-11-23T16:14:18.828Z,94213.00
2022-11-23T16:16:48.848Z,94207.31
2022-11-23T16:19:27.905Z,94212.56
2022-11-23T16:22:02.741Z,94213.09
2022-11-23T16:24:35.351Z,94211.28
2022-11-23T16:27:13.899Z,94217.66
2022-11-23T16:29:42.074Z,94220.84
2022-11-23T16:32:23.689Z,94218.97
2022-11-23T16:34:51.353Z,94211.91
2022-11-23T16:37:19.069Z,94217.91
2022-11-23T16:39:48.203Z,94217.06
2022-11-23T16:42:17.464Z,94211.78
2022-11-23T16:44:45.647Z,94214.97
2022-11-23T16:47:24.034Z,94206.06
2022-11-23T16:49:52.577Z,94212.25
2022-11-23T16:52:20.992Z,94210.78
2022-11-23T16:54:50.961Z,94209.53
2022-11-23T16:57:25.050Z,94213.81
2022-11-23T16:59:52.905Z,94210.94
2022-11-23T17:02:21.126Z,94221.16
2022-11-23T17:04:48.949Z,94225.50
2022-11-23T17:07:18.065Z,94221.19
2022-11-23T17:09:45.715Z,94226.47
2022-11-23T17:12:18.679Z,94232.75
2022-11-23T17:14:52.394Z,94219.56
2022-11-23T17:17:22.426Z,94224.91
2022-11-23T17:19:52.109Z,94227.25
2022-11-23T17:22:21.094Z,94240.19
2022-11-23T17:24:50.222Z,94236.06
2022-11-23T17:27:23.077Z,94227.94
2022-11-23T17:29:56.504Z,94229.94
2022-11-23T17:32:24.156Z,94235.78
2022-11-23T17:34:51.860Z,94240.78
2022-11-23T17:37:23.284Z,94248.78
2022-11-23T17:39:51.534Z,94246.19
2022-11-23T17:42:21.275Z,94243.72
2022-11-23T17:44:48.982Z,94259.69
2022-11-23T17:47:24.131Z,94260.06
2022-11-23T17:49:51.849Z,94277.53
2022-11-23T17:52:20.187Z,94278.91
2022-11-23T17:54:47.831Z,94279.31
2022-11-23T17:57:16.923Z,94282.47
2022-11-23T17:59:45.964Z,94281.56
2022-11-23T18:02:13.647Z,94285.53
2022-11-23T18:04:41.439Z,94291.66
2022-11-23T18:07:13.950Z,94301.41
2022-11-23T18:09:41.969Z,94315.00
2022-11-23T18:12:10.749Z,94317.00
2022-11-23T18:14:38.628Z,94320.31
2022-11-23T18:17:07.645Z,94330.78
2022-11-23T18:19:35.795Z,94332.22
2022-11-23T18:22:03.510Z,94345.19
2022-11-23T18:24:31.174Z,94349.63
2022-11-23T18:26:58.772Z,94361.41
2022-11-23T18:29:26.648Z,94373.41
2022-11-23T18:31:54.369Z,94397.94
2022-11-23T18:34:23.815Z,94403.41
2022-11-23T18:36:51.488Z,94396.19
2022-11-23T18:39:19.564Z,94398.81
2022-11-23T18:41:47.638Z,94401.25
2022-11-23T18:44:15.437Z,94399.28
2022-11-23T18:46:44.843Z,94399.81
2022-11-23T18:49:12.747Z,94403.78
2022-11-23T18:51:41.775Z,94413.81
2022-11-23T18:54:09.470Z,94422.59
2022-11-23T18:56:37.095Z,94434.00
2022-11-23T18:59:04.762Z,94441.72
2022-11-23T19:01:32.582Z,94435.88
2022-11-23T19:04:01.480Z,94462.59
2022-11-23T19:06:29.218Z,94469.78
2022-11-23T19:08:58.332Z,94467.00
2022-11-23T19:11:28.551Z,94468.31
2022-11-23T19:13:58.953Z,94473.91
2022-11-23T19:16:28.856Z,94472.03
2022-11-23T19:18:57.852Z,94483.31
2022-11-23T19:21:28.177Z,94482.97
2022-11-23T19:23:59.242Z,94495.31
2022-11-23T19:26:28.128Z,94500.00
2022-11-23T19:28:57.049Z,94496.94
2022-11-23T19:31:26.506Z,94500.25
2022-11-23T19:33:56.958Z,94495.56
2022-11-23T19:36:26.198Z,94508.28
2022-11-23T19:38:55.790Z,94506.56
2022-11-23T19:41:29.837Z,94508.72
2022-11-23T19:43:59.860Z,94513.28
2022-11-23T19:46:28.175Z,94515.94
2022-11-23T19:48:57.260Z,94518.13
2022-11-23T19:51:26.207Z,94528.13
2022-11-23T19:53:56.909Z,94533.84
2022-11-23T19:56:28.746Z,94536.34
2022-11-23T19:58:58.452Z,94540.50
2022-11-23T20:01:27.438Z,94546.47
2022-11-23T20:03:57.503Z,94551.50
2022-11-23T20:06:26.964Z,94555.75
2022-11-23T20:08:55.594Z,94553.75
2022-11-23T20:11:23.893Z,94549.31
2022-11-23T20:13:53.007Z,94558.50
2022-11-23T20:16:22.325Z,94562.31
2022-11-23T20:18:56.823Z,94556.38
2022-11-23T20:21:24.763Z,94549.09
2022-11-23T20:24:02.862Z,94558.09
2022-11-23T20:26:32.447Z,94564.69
2022-11-23T20:29:01.486Z,94556.50
2022-11-23T20:31:31.450Z,94563.34
2022-11-23T20:33:59.825Z,94564.59
2022-11-23T20:36:29.289Z,94562.78
2022-11-23T20:38:57.818Z,94569.53
2022-11-23T20:41:27.594Z,94565.44
2022-11-23T20:43:56.949Z,94573.59
2022-11-23T20:46:53.677Z,94572.78
2022-11-23T20:49:15.158Z,94582.78
2022-11-23T20:51:43.498Z,94582.97
2022-11-23T20:54:11.244Z,94583.38
2022-11-23T20:56:39.454Z,94587.31
2022-11-23T20:59:07.506Z,94592.13
2022-11-23T21:01:36.874Z,94591.03
2022-11-23T21:04:04.690Z,94587.16
2022-11-23T21:06:38.443Z,94586.63
2022-11-23T21:09:06.923Z,94591.63
2022-11-23T21:11:52.512Z,94601.16
2022-11-23T21:14:21.970Z,94589.63
2022-11-23T21:16:55.075Z,94598.47
2022-11-23T21:19:24.482Z,94595.25
2022-11-23T21:21:53.099Z,94604.25
2022-11-23T21:24:21.387Z,94608.69
2022-11-23T21:26:49.845Z,94615.81
2022-11-23T21:29:18.484Z,94602.06
2022-11-23T21:31:48.373Z,94602.06
2022-11-23T21:34:20.155Z,94625.94
2022-11-23T21:36:48.401Z,94625.75
2022-11-23T21:39:16.821Z,94624.25
2022-11-23T21:41:45.251Z,94616.78
2022-11-23T21:44:13.348Z,94621.13
2022-11-23T21:46:42.689Z,94641.84
2022-11-23T21:49:11.476Z,94630.50
2022-11-23T21:51:42.510Z,94628.53
2022-11-23T21:54:14.279Z,94641.97
2022-11-23T21:56:42.942Z,94644.06
2022-11-23T21:59:10.891Z,94654.47
2022-11-23T22:01:39.490Z,94663.22
2022-11-23T22:04:10.297Z,94657.88
2022-11-23T22:06:38.507Z,94674.75
2022-11-23T22:09:09.182Z,94667.28
2022-11-23T22:11:39.445Z,94684.91
2022-11-23T22:14:09.625Z,94671.47
2022-11-23T22:16:38.662Z,94675.91
2022-11-23T22:19:07.941Z,94676.38
2022-11-23T22:21:37.893Z,94686.66
2022-11-23T22:24:11.078Z,94687.28
2022-11-23T22:26:38.823Z,94694.91
2022-11-23T22:29:06.830Z,94694.75
2022-11-23T22:31:35.547Z,94692.53
2022-11-23T22:34:04.569Z,94707.34
2022-11-23T22:36:32.937Z,94701.91
2022-11-23T22:39:02.596Z,94717.88
2022-11-23T22:41:34.441Z,94729.81
2022-11-23T22:44:02.125Z,94733.81
2022-11-23T22:46:30.231Z,94719.75
2022-11-23T22:48:59.263Z,94733.97
2022-11-23T22:51:29.246Z,94749.16
2022-11-23T22:53:58.407Z,94755.09
2022-11-23T22:56:27.822Z,94741.81
2022-11-23T22:58:57.155Z,94754.34
2022-11-23T23:01:27.509Z,94748.88
2022-11-23T23:03:56.457Z,94753.69
2022-11-23T23:06:26.137Z,94773.56
2022-11-23T23:08:55.560Z,94766.50
2022-11-23T23:11:24.825Z,94770.47
2022-11-23T23:13:52.925Z,94773.19
2022-11-23T23:16:23.049Z,94769.19
2022-11-23T23:18:51.797Z,94784.31
2022-11-23T23:21:21.773Z,94795.25
2022-11-23T23:23:51.383Z,94799.38
2022-11-23T23:26:20.620Z,94792.06
2022-11-23T23:28:49.239Z,94799.56
2022-11-23T23:31:18.017Z,94800.91
2022-11-23T23:33:47.744Z,94813.88
2022-11-23T23:36:16.935Z,94803.38
2022-11-23T23:38:45.460Z,94813.06
2022-11-23T23:41:14.339Z,94827.22
2022-11-23T23:43:42.717Z,94828.69
2022-11-23T23:46:13.177Z,94828.69
2022-11-23T23:48:41.899Z,94826.00
2022-11-23T23:51:12.453Z,94830.88
2022-11-23T23:53:40.649Z,94833.75
2022-11-23T23:56:12.840Z,94838.75
2022-11-23T23:58:41.208Z,94843.06
